Hlavní strana
METAR-TAF:

METAR-TAF

Letiště :

Yorkton, Saskatchewan, Kanada

zeměpisná šířka: 51-16N, zeměpisná délka: 102-28W, výška: 498 m

Aktuální stav počasí

Zpráva byla vytvořena před 31 minutami, v 09:00 UTC
Jihozápadní vítr 3 kt
Teplota -4°C
Vlhkost vzduchu 93%
Tlak 1024 hPa
Viditelnost: 14.5 km
Oblačno až skoro zataženo ve výšce 15000 ft
Oblačno až skoro zataženo ve výšce 18000 ft

METAR: CYQV 170900Z AUTO 23003KT 9SM BKN150 BKN180 M04/M05 A3025 RMK SLP270

Čas: 03:31 (09:31 UTC)

Předpověď počasí

Zpráva byla vytvořena před 9 hodinami a 53 minutami, v 23:38 UTC
Předpověď platná od 17 v 00 UTC do 17 v 06 UTC
Severoseverozápadní vítr 12 kt s nárazy do 22 kt
Viditelnost: 10 km
Zataženo ve výšce 5000 ft
Od 17 v 0400 UTC
Severozápadní vítr 12 kt
Viditelnost: 10 km
Polojasno ve výšce 3000 ft

TAF: CYQV 162338Z 1700/1706 33012G22KT P6SM OVC050 FM170400 31012KT P6SM SCT030 RMK FCST BASED ON AUTO OBS. NXT FCST WILL BE ISSUED AT 171145Z

Stav a předpovědi počasí z více než 4 000 letišť (zprávy METAR a TAF).

Červené a žluté tečky na mapě představují dostupné meteorologické stanice.

Když kurzor umístíte na tečku, zobrazí se název stanice.

Pak kliknutím zobrazíte stav a předpověď počasí.

Chcete-li změnit mapu, kliknutím na zelené tlačítko se znaménkem +mapu přiblížíte, kliknutím na zelené tlačítko se znaménkem – mapu oddálíte a kliknutím na zelené šipky přejdete na sousední mapy.


METAR-TAF: